Time;durP1;ratioP1;P1;durP2;ratioP2;P2;SDS_P1;SDS_P2;PMS_P1;PMS_P2;Temp;Humidity;BMP_temperature;BMP_pressure;BME280_temperature;BME280_humidity;BME280_pressure;Samples;Min_cycle;Max_cycle;Signal;HPM_P1;HPM_P2
2022/11/23 00:02:26;;;;;;;0.10;0.10;;;;;;;5.35;90.01;99539.84;10515439;28;20119;-74
2022/11/23 00:07:29;;;;;;;0.20;0.20;;;;;;;5.38;89.84;99536.44;10524061;28;20355;-74
2022/11/23 00:12:34;;;;;;;0.75;0.75;;;;;;;5.39;90.12;99549.44;10521852;28;20517;-73
2022/11/23 00:17:36;;;;;;;0.93;0.47;;;;;;;5.44;90.39;99532.19;10522766;28;20145;-73
2022/11/23 00:22:38;;;;;;;0.90;0.75;;;;;;;5.42;90.27;99538.19;10522577;28;20051;-73
2022/11/23 00:27:40;;;;;;;0.30;0.30;;;;;;;5.44;90.66;99540.00;10521279;28;20435;-73
2022/11/23 00:32:43;;;;;;;0.55;0.32;;;;;;;5.42;91.00;99535.59;10504426;28;20040;-74
2022/11/23 00:37:44;;;;;;;0.15;0.15;;;;;;;5.41;90.93;99539.06;10503164;28;20084;-74
2022/11/23 00:42:48;;;;;;;1.70;0.85;;;;;;;5.46;91.19;99537.41;10520682;28;20628;-75
2022/11/23 00:47:49;;;;;;;0.70;0.65;;;;;;;5.40;91.25;99543.38;10520900;28;20043;-75
2022/11/23 00:52:53;;;;;;;0.30;0.30;;;;;;;5.38;91.63;99539.88;10520646;28;20123;-75
2022/11/23 00:57:54;;;;;;;0.32;0.22;;;;;;;5.43;92.13;99537.38;10520639;28;20055;-75
2022/11/23 01:02:56;;;;;;;0.85;0.40;;;;;;;5.44;92.24;99540.00;10521485;28;20044;-75
2022/11/23 01:07:58;;;;;;;0.60;0.32;;;;;;;5.43;92.09;99543.44;10503577;28;20659;-75
2022/11/23 01:13:00;;;;;;;0.40;0.30;;;;;;;5.47;92.18;99541.78;10502073;28;20048;-74
2022/11/23 01:18:03;;;;;;;0.77;0.47;;;;;;;5.48;92.40;99551.31;10491189;28;20444;-74
2022/11/23 01:28:33;;;;;;;0.20;0.20;;;;;;;5.55;92.70;99539.31;10269039;28;20084;-82
2022/11/23 01:33:35;;;;;;;0.73;0.40;;;;;;;5.49;92.77;99546.16;10294700;28;20054;-82
2022/11/23 01:38:37;;;;;;;0.30;0.30;;;;;;;5.50;92.88;99544.44;10294375;28;20248;-83
2022/11/23 01:43:39;;;;;;;0.38;0.30;;;;;;;5.46;93.00;99538.31;10329074;28;20559;-83
2022/11/23 01:49:00;;;;;;;0.63;0.30;;;;;;;5.54;93.17;99545.34;10306285;28;20046;-83
2022/11/23 01:54:21;;;;;;;0.55;0.40;;;;;;;5.58;93.29;99544.56;10328055;28;20034;-83
2022/11/23 01:59:24;;;;;;;0.20;0.20;;;;;;;5.62;93.46;99535.97;10335013;28;20042;-82
2022/11/23 02:04:31;;;;;;;0.17;0.17;;;;;;;5.65;93.52;99536.88;10316665;28;20046;-83
2022/11/23 02:09:34;;;;;;;0.38;0.38;;;;;;;5.64;93.39;99536.88;10300564;28;20050;-82
2022/11/23 02:14:36;;;;;;;0.38;0.30;;;;;;;5.67;93.46;99536.91;10302749;28;20073;-83
2022/11/23 02:19:54;;;;;;;0.50;0.50;;;;;;;5.64;93.54;99536.88;10313306;28;20057;-82
2022/11/23 02:24:55;;;;;;;0.40;0.20;;;;;;;5.67;93.67;99542.09;10284104;28;20073;-83
2022/11/23 02:30:01;;;;;;;0.17;0.17;;;;;;;5.66;93.91;99541.25;10276986;28;20051;-82
2022/11/23 02:35:03;;;;;;;1.45;0.73;;;;;;;5.60;93.92;99532.47;10291718;28;20038;-83
2022/11/23 02:40:15;;;;;;;0.30;0.30;;;;;;;5.67;94.08;99536.91;10274717;28;20066;-83
2022/11/23 02:45:35;;;;;;;0.20;0.20;;;;;;;5.67;94.18;99536.91;10287419;28;20071;-83
2022/11/23 02:50:36;;;;;;;0.37;0.37;;;;;;;5.71;94.44;99535.25;10288236;28;20111;-83
2022/11/23 02:55:40;;;;;;;0.10;0.10;;;;;;;5.70;94.35;99542.16;10281087;28;20128;-82
2022/11/23 03:00:41;;;;;;;0.38;0.28;;;;;;;5.80;94.38;99549.25;10287361;28;20043;-83
2022/11/23 03:05:43;;;;;;;0.60;0.30;;;;;;;5.79;94.36;99544.91;10244210;28;20126;-83
2022/11/23 03:10:44;;;;;;;0.30;0.30;;;;;;;5.80;94.55;99538.00;10262761;28;20051;-83
2022/11/23 03:15:46;;;;;;;0.82;0.70;;;;;;;5.79;94.52;99539.72;10263023;28;20050;-82
2022/11/23 03:20:48;;;;;;;0.20;0.20;;;;;;;5.75;94.52;99545.72;10270519;28;20093;-83
2022/11/23 03:25:57;;;;;;;0.20;0.20;;;;;;;5.80;94.80;99546.66;10288389;28;20054;-82
2022/11/23 03:31:02;;;;;;;1.15;0.40;;;;;;;5.78;94.65;99544.88;10318260;28;20065;-82
2022/11/23 03:36:04;;;;;;;0.43;0.40;;;;;;;5.80;94.81;99559.66;10302788;28;20133;-83
2022/11/23 03:41:13;;;;;;;0.40;0.40;;;;;;;5.88;94.99;99557.19;10302014;28;20043;-82
2022/11/23 03:46:26;;;;;;;1.55;1.40;;;;;;;5.86;95.10;99558.03;10282504;28;20619;-82
2022/11/23 03:51:27;;;;;;;2.65;0.40;;;;;;;5.84;95.06;99561.47;10282624;28;20042;-84
2022/11/23 03:56:29;;;;;;;0.70;0.45;;;;;;;5.87;95.28;99559.75;10283032;28;20049;-83
2022/11/23 04:01:30;;;;;;;0.25;0.25;;;;;;;5.88;95.52;99551.13;10290013;28;20549;-83
2022/11/23 04:06:37;;;;;;;0.38;0.38;;;;;;;5.87;95.62;99562.34;10303288;28;20088;-84
2022/11/23 04:12:02;;;;;;;0.43;0.43;;;;;;;5.90;95.76;99559.81;10291714;28;20043;-83
2022/11/23 04:17:03;;;;;;;0.47;0.47;;;;;;;5.96;95.78;99560.78;10306053;28;20035;-84
2022/11/23 04:22:06;;;;;;;0.90;0.52;;;;;;;5.96;96.08;99563.38;10297524;28;20042;-83
2022/11/23 04:27:13;;;;;;;1.40;0.90;;;;;;;5.95;96.20;99560.78;10296907;28;20046;-83
2022/11/23 04:32:15;;;;;;;1.15;0.70;;;;;;;6.00;96.20;99562.63;10305377;28;20031;-83
2022/11/23 04:37:17;;;;;;;1.35;1.00;;;;;;;6.06;96.25;99559.22;10281804;28;20428;-82
2022/11/23 04:42:19;;;;;;;0.40;0.40;;;;;;;6.06;96.40;99566.16;10308302;28;20080;-84
2022/11/23 04:47:32;;;;;;;0.40;0.40;;;;;;;6.05;96.49;99560.09;10276984;28;20146;-83
2022/11/23 04:52:38;;;;;;;1.52;0.77;;;;;;;6.11;96.60;99565.41;10251287;28;20038;-84
2022/11/23 04:57:45;;;;;;;0.80;0.80;;;;;;;6.11;96.72;99560.19;10287413;28;20049;-83
2022/11/23 05:02:47;;;;;;;0.40;0.40;;;;;;;6.10;96.78;99563.63;10272465;28;20055;-83
2022/11/23 05:07:59;;;;;;;0.52;0.50;;;;;;;6.10;96.59;99568.84;10286904;28;20042;-84
2022/11/23 05:13:14;;;;;;;0.77;0.60;;;;;;;6.14;96.61;99569.75;10296993;28;20054;-84
2022/11/23 05:18:16;;;;;;;0.50;0.40;;;;;;;6.16;96.70;99568.91;10286011;28;20068;-83
2022/11/23 05:23:19;;;;;;;0.95;0.60;;;;;;;6.24;96.78;99570.78;10263308;28;20076;-83
2022/11/23 05:28:21;;;;;;;0.65;0.57;;;;;;;6.21;96.71;99574.19;10295942;28;20217;-84
2022/11/23 05:33:46;;;;;;;0.68;0.47;;;;;;;6.21;96.45;99574.19;10284311;28;20058;-84
2022/11/23 05:38:52;;;;;;;0.88;0.63;;;;;;;6.23;96.47;99579.41;10261450;28;20400;-84
2022/11/23 05:44:00;;;;;;;0.70;0.55;;;;;;;6.22;96.78;99583.75;10260239;28;20046;-84
2022/11/23 05:49:03;;;;;;;1.15;0.93;;;;;;;6.22;96.94;99594.16;10270322;28;20400;-84
2022/11/23 05:54:09;;;;;;;1.10;0.98;;;;;;;6.24;96.75;99599.38;10269572;28;20135;-85
2022/11/23 05:59:31;;;;;;;0.75;0.60;;;;;;;6.25;97.06;99603.72;10267667;28;20047;-85
2022/11/23 06:04:37;;;;;;;1.25;0.70;;;;;;;6.18;96.50;99598.44;10266247;28;20057;-84
2022/11/23 06:09:42;;;;;;;1.13;0.80;;;;;;;6.22;97.07;99601.09;10258377;28;20060;-84
2022/11/23 06:14:45;;;;;;;0.38;0.38;;;;;;;6.15;96.87;99600.94;10264324;28;20070;-86
2022/11/23 06:19:49;;;;;;;0.63;0.57;;;;;;;6.14;97.02;99607.03;10262716;28;20550;-85
2022/11/23 06:24:51;;;;;;;0.75;0.57;;;;;;;6.08;97.00;99612.13;10278202;28;20549;-85
2022/11/23 06:30:08;;;;;;;0.40;0.40;;;;;;;6.04;96.89;99610.31;10255126;28;20117;-85
2022/11/23 06:35:11;;;;;;;1.50;0.80;;;;;;;6.05;97.03;99617.28;10276648;28;20046;-85
2022/11/23 06:40:15;;;;;;;1.02;0.50;;;;;;;6.08;96.95;99619.03;10271194;28;20085;-84
2022/11/23 06:45:17;;;;;;;0.90;0.47;;;;;;;6.08;97.01;99619.03;10280505;28;20046;-84
2022/11/23 06:50:26;;;;;;;1.27;0.85;;;;;;;6.06;97.25;99613.81;10278339;28;20078;-87
2022/11/23 06:55:28;;;;;;;1.35;0.88;;;;;;;6.06;97.14;99624.19;10275612;28;20053;-84
2022/11/23 07:00:31;;;;;;;0.55;0.55;;;;;;;6.03;97.17;99629.34;10270917;28;20036;-85
2022/11/23 07:05:37;;;;;;;1.38;0.88;;;;;;;6.01;97.46;99629.31;10273377;28;20047;-85
2022/11/23 07:10:39;;;;;;;1.50;0.82;;;;;;;5.99;97.23;99644.03;10260896;28;20407;-85
2022/11/23 07:15:43;;;;;;;1.30;0.90;;;;;;;6.00;97.40;99645.78;10255006;28;20109;-86
2022/11/23 07:20:45;;;;;;;1.00;0.75;;;;;;;5.99;97.50;99654.41;10277221;28;20047;-86
2022/11/23 07:25:50;;;;;;;1.27;0.65;;;;;;;6.01;97.57;99655.31;10271985;28;20803;-87
2022/11/23 07:30:58;;;;;;;1.90;0.73;;;;;;;6.03;97.45;99665.72;10267151;28;20039;-88
2022/11/23 07:36:04;;;;;;;0.45;0.40;;;;;;;6.02;97.57;99669.19;10259096;28;20583;-85
2022/11/23 07:41:06;;;;;;;0.85;0.60;;;;;;;6.06;97.66;99667.50;10283376;28;20037;-85
2022/11/23 07:46:22;;;;;;;0.60;0.60;;;;;;;6.06;97.69;99678.78;10280846;28;20431;-86
2022/11/23 07:51:24;;;;;;;1.30;0.75;;;;;;;6.10;97.50;99678.00;10291734;28;20460;-86
2022/11/23 07:56:25;;;;;;;0.88;0.68;;;;;;;6.21;97.52;99679.91;10282061;28;20057;-86
2022/11/23 08:01:27;;;;;;;1.65;0.95;;;;;;;6.23;97.62;99680.78;10252580;28;20039;-85
2022/11/23 08:06:29;;;;;;;1.10;0.63;;;;;;;6.29;97.43;99688.69;10266990;28;20129;-85
2022/11/23 08:11:30;;;;;;;0.88;0.60;;;;;;;6.28;97.75;99687.81;10290242;28;20489;-86
2022/11/23 08:16:32;;;;;;;0.98;0.68;;;;;;;6.33;97.53;99695.69;10267396;28;20039;-85
2022/11/23 08:21:34;;;;;;;1.20;0.63;;;;;;;6.39;97.66;99689.72;10284387;28;20062;-85
2022/11/23 08:26:35;;;;;;;1.45;0.90;;;;;;;6.45;97.26;99692.44;10270020;28;20051;-85
2022/11/23 08:31:37;;;;;;;1.02;0.93;;;;;;;6.49;97.37;99702.03;10272791;28;20035;-85
2022/11/23 08:36:38;;;;;;;0.65;0.43;;;;;;;6.48;97.23;99701.16;10281791;28;20057;-85
2022/11/23 08:41:40;;;;;;;1.33;0.93;;;;;;;6.48;97.17;99698.53;10285110;28;20053;-85
2022/11/23 08:46:42;;;;;;;1.00;0.88;;;;;;;6.44;97.06;99709.78;10244019;28;20076;-86
2022/11/23 08:51:44;;;;;;;1.05;0.77;;;;;;;6.51;97.28;99706.41;10281380;28;20563;-85
2022/11/23 08:56:51;;;;;;;0.88;0.70;;;;;;;6.58;97.37;99707.38;10274939;28;20050;-86
2022/11/23 09:01:52;;;;;;;0.93;0.77;;;;;;;6.60;97.24;99710.88;10289847;28;20078;-85
2022/11/23 09:06:54;;;;;;;0.40;0.40;;;;;;;6.64;97.39;99717.88;10284816;28;20071;-85
2022/11/23 09:11:55;;;;;;;1.08;0.85;;;;;;;6.71;97.17;99708.44;10284131;28;20046;-86
2022/11/23 09:16:59;;;;;;;2.58;1.38;;;;;;;6.82;97.42;99714.69;10272749;28;20047;-86
2022/11/23 09:22:03;;;;;;;0.93;0.80;;;;;;;6.87;97.41;99718.22;10285015;28;20034;-86
2022/11/23 09:27:05;;;;;;;1.45;0.88;;;;;;;6.88;97.13;99714.78;10254369;28;20054;-86
2022/11/23 09:32:06;;;;;;;1.15;0.93;;;;;;;6.97;97.36;99716.66;10223473;28;20078;-86
2022/11/23 09:37:08;;;;;;;1.20;0.90;;;;;;;7.16;97.46;99717.78;10239220;28;20054;-85
2022/11/23 09:42:39;;;;;;;1.02;0.70;;;;;;;7.32;97.31;99720.59;10243049;28;20043;-86
2022/11/23 09:48:18;;;;;;;1.85;1.30;;;;;;;7.44;97.08;99725.97;10236474;28;20070;-86
2022/11/23 09:53:34;;;;;;;2.58;1.77;;;;;;;7.50;96.84;99720.81;10238158;28;20583;-85
2022/11/23 09:58:39;;;;;;;1.92;0.90;;;;;;;7.53;96.80;99728.66;10231704;28;20115;-86
2022/11/23 10:03:44;;;;;;;2.55;1.50;;;;;;;7.60;96.55;99730.50;10240767;28;20149;-86
2022/11/23 10:09:31;;;;;;;1.05;0.73;;;;;;;7.67;96.34;99726.25;10242639;29;20055;-85
2022/11/23 10:14:54;;;;;;;1.98;1.40;;;;;;;7.72;96.20;99729.78;10207171;28;20039;-85
2022/11/23 10:20:27;;;;;;;0.75;0.75;;;;;;;7.81;96.04;99733.34;10238352;28;20505;-85
2022/11/23 10:25:44;;;;;;;0.93;0.75;;;;;;;7.92;95.61;99732.59;10217983;28;20039;-86
2022/11/23 10:31:20;;;;;;;3.38;1.23;;;;;;;7.87;95.35;99729.09;10259793;28;20054;-86
2022/11/23 10:36:22;;;;;;;0.43;0.43;;;;;;;7.81;95.17;99726.41;10258315;28;20068;-85
2022/11/23 10:41:23;;;;;;;6.68;2.10;;;;;;;7.88;94.90;99735.16;10267900;28;20050;-86
2022/11/23 10:46:25;;;;;;;2.13;1.30;;;;;;;7.90;94.81;99729.13;10266524;28;20519;-86
2022/11/23 10:51:34;;;;;;;1.65;1.10;;;;;;;8.02;94.55;99732.72;10266733;28;20120;-86
2022/11/23 10:56:48;;;;;;;0.95;0.90;;;;;;;8.16;94.26;99723.28;10281703;28;20039;-86
2022/11/23 11:02:08;;;;;;;0.65;0.57;;;;;;;8.09;94.17;99721.47;10264894;28;20210;-86
2022/11/23 11:07:35;;;;;;;1.42;1.10;;;;;;;8.00;93.81;99724.00;10284362;28;20038;-86
2022/11/23 11:13:00;;;;;;;0.63;0.60;;;;;;;7.95;93.82;99722.19;10263306;28;20043;-86
2022/11/23 11:18:02;;;;;;;2.67;1.45;;;;;;;8.02;93.61;99714.47;10276252;28;20427;-85
2022/11/23 11:23:46;;;;;;;0.50;0.50;;;;;;;8.09;93.33;99714.56;10273755;28;20527;-87
2022/11/23 11:29:00;;;;;;;2.95;1.20;;;;;;;8.11;93.11;99718.03;10264830;28;20141;-85
2022/11/23 11:34:38;;;;;;;0.80;0.73;;;;;;;8.12;92.94;99721.50;10272492;28;20519;-86
2022/11/23 11:40:13;;;;;;;1.35;0.75;;;;;;;8.04;92.91;99715.34;10282454;28;20053;-86
2022/11/23 11:45:39;;;;;;;0.80;0.65;;;;;;;8.09;93.10;99713.66;10267473;28;20058;-86
2022/11/23 11:51:08;;;;;;;1.08;0.70;;;;;;;8.19;93.21;99710.28;10248530;28;20060;-85
2022/11/23 11:56:33;;;;;;;2.00;0.85;;;;;;;8.45;93.05;99709.66;10281988;28;20043;-85
2022/11/23 12:01:38;;;;;;;0.70;0.70;;;;;;;8.49;92.83;99708.84;10256781;28;20039;-85
2022/11/23 12:06:53;;;;;;;10.07;1.95;;;;;;;8.52;92.54;99703.66;10262501;28;20432;-85
2022/11/23 12:11:54;;;;;;;1.17;0.73;;;;;;;8.63;92.05;99708.94;10249151;28;20094;-85
2022/11/23 12:17:09;;;;;;;3.28;1.30;;;;;;;8.71;91.87;99709.00;10271228;28;20042;-85
2022/11/23 12:22:43;;;;;;;1.30;0.65;;;;;;;8.84;91.33;99693.47;10276145;28;20404;-84
2022/11/23 12:28:02;;;;;;;1.98;0.80;;;;;;;8.92;90.83;99688.28;10258042;28;20047;-85
2022/11/23 12:33:11;;;;;;;1.02;0.93;;;;;;;8.95;90.18;99688.31;10267992;28;20046;-85
2022/11/23 12:38:32;;;;;;;0.75;0.75;;;;;;;8.98;89.57;99685.72;10260935;28;20047;-84
2022/11/23 12:43:52;;;;;;;0.52;0.52;;;;;;;8.99;89.04;99681.34;10283726;28;20041;-84
2022/11/23 12:49:12;;;;;;;1.87;0.80;;;;;;;9.11;88.75;99684.06;10265315;28;20043;-84
2022/11/23 12:54:28;;;;;;;3.63;1.15;;;;;;;9.11;88.22;99676.22;10268560;28;20441;-84
2022/11/23 12:59:43;;;;;;;1.45;0.50;;;;;;;9.09;87.55;99669.22;10280070;28;20047;-85
2022/11/23 13:05:05;;;;;;;0.40;0.20;;;;;;;9.10;87.05;99671.00;10265539;28;20114;-86
2022/11/23 13:10:16;;;;;;;0.40;0.40;;;;;;;9.11;86.80;99667.50;10272756;28;20050;-85
2022/11/23 13:15:46;;;;;;;1.17;0.65;;;;;;;9.08;86.46;99663.09;10276118;28;20138;-85
2022/11/23 13:21:08;;;;;;;3.33;0.70;;;;;;;9.06;86.11;99656.16;10283777;28;20074;-85
2022/11/23 13:26:14;;;;;;;7.32;0.95;;;;;;;9.08;85.59;99664.84;10278434;28;20031;-84
2022/11/23 13:31:15;;;;;;;2.25;0.75;;;;;;;9.05;85.21;99657.00;10280865;28;20564;-85
2022/11/23 13:36:30;;;;;;;0.10;0.10;;;;;;;9.03;84.89;99664.84;10293120;28;20123;-85
2022/11/23 13:42:00;;;;;;;0.30;0.30;;;;;;;8.95;84.78;99658.72;10276025;28;20551;-84
2022/11/23 13:47:08;;;;;;;1.10;0.80;;;;;;;8.87;84.48;99663.88;10305450;28;20787;-85
2022/11/23 13:52:22;;;;;;;3.58;1.20;;;;;;;8.90;84.32;99666.50;10274328;28;20539;-85
2022/11/23 13:57:23;;;;;;;1.70;0.30;;;;;;;8.87;84.01;99674.31;10287067;28;20046;-84
2022/11/23 14:02:29;;;;;;;1.20;0.30;;;;;;;8.85;83.94;99669.09;10289661;28;20575;-85
2022/11/23 14:07:45;;;;;;;0.75;0.43;;;;;;;8.68;83.93;99670.72;10268189;28;20047;-84
2022/11/23 14:13:01;;;;;;;0.57;0.43;;;;;;;8.67;83.80;99671.59;10288344;28;20062;-85
2022/11/23 14:18:26;;;;;;;1.23;0.50;;;;;;;8.60;83.60;99675.00;10295817;28;20436;-84
2022/11/23 14:23:43;;;;;;;2.20;0.80;;;;;;;8.50;83.56;99676.69;10291266;28;20075;-84
2022/11/23 14:28:59;;;;;;;4.13;0.45;;;;;;;8.42;83.53;99678.31;10286003;28;20054;-85
2022/11/23 14:34:17;;;;;;;6.50;1.13;;;;;;;8.26;83.63;99675.59;10284653;28;20141;-85
2022/11/23 14:39:57;;;;;;;0.52;0.40;;;;;;;8.16;83.59;99683.31;10255490;28;20082;-84
2022/11/23 14:45:03;;;;;;;3.58;0.98;;;;;;;8.11;83.71;99698.91;10165099;29;20048;-83
2022/11/23 14:50:18;;;;;;;0.30;0.30;;;;;;;8.05;83.71;99686.69;10256218;28;20452;-85
2022/11/23 14:55:25;;;;;;;0.13;0.13;;;;;;;7.94;83.70;99681.38;10266087;28;20058;-85
2022/11/23 15:00:38;;;;;;;0.20;0.20;;;;;;;7.89;83.63;99677.84;10291380;28;20366;-84
2022/11/23 15:05:43;;;;;;;1.25;0.45;;;;;;;7.81;83.45;99669.06;10286443;28;20088;-84
2022/11/23 15:10:55;;;;;;;0.20;0.20;;;;;;;7.71;83.18;99657.66;10292379;28;20053;-84
2022/11/23 15:15:57;;;;;;;2.40;1.02;;;;;;;7.55;83.17;99663.56;10289566;28;20869;-82
2022/11/23 15:21:02;;;;;;;0.30;0.30;;;;;;;7.41;83.12;99666.00;10289500;28;20038;-83
2022/11/23 15:26:23;;;;;;;0.52;0.40;;;;;;;7.22;82.98;99672.72;10298490;28;20788;-84
2022/11/23 15:31:47;;;;;;;1.67;0.98;;;;;;;7.02;83.14;99677.66;10291828;28;20057;-84
2022/11/23 15:37:10;;;;;;;1.10;0.77;;;;;;;6.77;83.24;99666.94;10300063;28;20498;-82
2022/11/23 15:42:17;;;;;;;3.58;1.23;;;;;;;6.65;83.59;99679.72;10278426;28;20039;-84
2022/11/23 15:47:21;;;;;;;1.20;0.85;;;;;;;6.48;83.81;99685.53;10291645;28;20366;-83
2022/11/23 15:52:23;;;;;;;0.93;0.80;;;;;;;6.34;84.05;99687.94;10309361;28;20042;-83
2022/11/23 15:57:27;;;;;;;2.60;1.48;;;;;;;6.16;84.31;99691.09;10306479;28;20393;-84
2022/11/23 16:02:30;;;;;;;1.75;0.90;;;;;;;5.93;84.48;99692.34;10304322;28;20188;-83
2022/11/23 16:07:32;;;;;;;1.23;0.55;;;;;;;5.73;84.75;99690.25;10280321;28;20043;-83
2022/11/23 16:12:47;;;;;;;3.15;1.25;;;;;;;5.49;85.12;99714.03;10266102;28;20607;-83
2022/11/23 16:17:49;;;;;;;1.10;0.70;;;;;;;5.25;85.52;99723.06;10282008;28;20530;-84
2022/11/23 16:22:52;;;;;;;2.00;1.50;;;;;;;5.10;86.00;99730.50;10281908;28;20058;-84
2022/11/23 16:28:05;;;;;;;0.95;0.68;;;;;;;5.08;86.35;99737.41;10293602;28;20047;-84
2022/11/23 16:33:15;;;;;;;1.83;1.13;;;;;;;5.25;86.77;99738.63;10300124;28;20559;-85
2022/11/23 16:38:18;;;;;;;3.28;1.80;;;;;;;5.41;86.90;99749.38;10293869;28;20042;-83
2022/11/23 16:43:20;;;;;;;3.20;1.17;;;;;;;5.28;86.87;99766.38;10293966;28;20038;-84
2022/11/23 16:48:41;;;;;;;3.33;1.85;;;;;;;5.19;86.96;99755.81;10266434;28;20046;-84
2022/11/23 16:53:44;;;;;;;1.13;0.82;;;;;;;5.03;87.17;99772.72;10301247;28;20507;-83
2022/11/23 16:59:15;;;;;;;1.80;1.00;;;;;;;4.80;87.13;99767.00;10292933;28;20049;-83
2022/11/23 17:04:17;;;;;;;1.40;0.73;;;;;;;4.67;87.39;99771.91;10310564;28;20062;-84
2022/11/23 17:09:19;;;;;;;0.98;0.75;;;;;;;4.50;87.21;99781.84;10292821;28;20485;-83
2022/11/23 17:14:21;;;;;;;0.77;0.55;;;;;;;4.40;87.66;99787.66;10297690;28;20729;-84
2022/11/23 17:19:29;;;;;;;1.83;1.37;;;;;;;4.37;88.03;99790.16;10300194;28;20067;-84
2022/11/23 17:24:32;;;;;;;1.10;0.85;;;;;;;4.21;88.03;99783.69;10304221;28;20054;-83
2022/11/23 17:29:33;;;;;;;0.40;0.40;;;;;;;4.15;88.32;99780.94;10294699;28;20047;-83
2022/11/23 17:34:42;;;;;;;0.52;0.52;;;;;;;4.13;88.58;99783.47;10294555;28;20125;-83
2022/11/23 17:39:43;;;;;;;1.08;0.95;;;;;;;4.01;88.97;99781.44;10305342;28;20038;-83
2022/11/23 17:44:45;;;;;;;0.30;0.30;;;;;;;3.92;88.92;99794.13;10295608;28;20097;-83
2022/11/23 17:49:46;;;;;;;0.65;0.50;;;;;;;3.84;89.10;99795.63;10295627;28;20053;-83
2022/11/23 17:54:48;;;;;;;2.03;0.85;;;;;;;3.78;89.27;99790.25;10300887;28;20420;-83
2022/11/23 17:59:50;;;;;;;1.27;0.68;;;;;;;3.88;89.45;99792.28;10303939;28;20054;-83
2022/11/23 18:04:52;;;;;;;3.47;1.65;;;;;;;3.99;89.80;99795.16;10302805;28;20114;-81
2022/11/23 18:09:54;;;;;;;2.08;0.52;;;;;;;4.11;89.72;99800.69;10286107;28;20086;-83
2022/11/23 18:14:55;;;;;;;1.17;0.60;;;;;;;4.15;90.04;99806.84;10292233;28;20046;-83
2022/11/23 18:19:57;;;;;;;0.82;0.77;;;;;;;4.21;90.14;99817.38;10315435;28;20038;-83
2022/11/23 18:24:58;;;;;;;1.13;0.68;;;;;;;4.34;90.07;99815.97;10296142;28;20438;-83
2022/11/23 18:30:00;;;;;;;1.45;1.00;;;;;;;4.54;90.14;99829.47;10300950;28;20643;-83
2022/11/23 18:35:03;;;;;;;2.60;1.38;;;;;;;4.68;90.17;99838.47;10299283;28;20076;-83
2022/11/23 18:40:05;;;;;;;0.90;0.73;;;;;;;4.81;90.00;99831.03;10282847;28;20058;-84
2022/11/23 18:45:07;;;;;;;1.17;0.73;;;;;;;5.00;90.02;99832.34;10282295;28;20043;-83
2022/11/23 18:50:09;;;;;;;1.65;0.98;;;;;;;5.18;89.84;99834.50;10290455;28;20042;-83
2022/11/23 18:55:10;;;;;;;0.85;0.80;;;;;;;5.19;89.29;99844.03;10300347;28;20057;-83
2022/11/23 19:00:14;;;;;;;0.57;0.45;;;;;;;5.22;89.11;99844.13;10282946;28;20522;-83
2022/11/23 19:05:16;;;;;;;3.60;0.82;;;;;;;5.30;88.72;99848.66;10302074;28;20405;-83
2022/11/23 19:10:18;;;;;;;0.43;0.43;;;;;;;5.40;88.39;99844.53;10299422;28;20435;-83
2022/11/23 19:15:20;;;;;;;0.63;0.35;;;;;;;5.45;87.95;99842.94;10305642;28;20569;-84
2022/11/23 19:20:22;;;;;;;0.43;0.43;;;;;;;5.40;87.60;99843.66;10274253;28;20042;-83
2022/11/23 19:25:23;;;;;;;0.52;0.50;;;;;;;5.41;87.24;99848.88;10297587;28;20059;-84
2022/11/23 19:30:26;;;;;;;0.55;0.55;;;;;;;5.52;87.29;99859.50;10301343;28;20058;-83
2022/11/23 19:35:27;;;;;;;0.68;0.57;;;;;;;5.53;87.07;99866.47;10303875;28;20495;-83
2022/11/23 19:40:29;;;;;;;0.50;0.40;;;;;;;5.65;86.73;99868.47;10285932;28;20742;-84
2022/11/23 19:45:30;;;;;;;1.85;1.10;;;;;;;5.65;86.53;99881.47;10299602;28;20062;-84
2022/11/23 19:50:32;;;;;;;2.15;1.10;;;;;;;5.64;86.77;99893.56;10295165;28;20106;-85
2022/11/23 19:55:33;;;;;;;0.98;0.65;;;;;;;5.65;86.82;99887.53;10289920;28;20075;-85
2022/11/23 20:00:35;;;;;;;1.20;0.90;;;;;;;5.64;86.97;99890.09;10285711;28;20046;-85
2022/11/23 20:05:37;;;;;;;2.88;0.95;;;;;;;5.62;87.51;99896.97;10291572;28;20059;-85
2022/11/23 20:10:39;;;;;;;2.95;1.55;;;;;;;5.54;87.82;99906.28;10291856;28;20034;-85
2022/11/23 20:15:42;;;;;;;1.95;1.27;;;;;;;5.43;88.21;99906.91;10292162;28;20486;-85
2022/11/23 20:20:46;;;;;;;0.55;0.55;;;;;;;5.34;88.70;99908.44;10274466;28;20575;-85
2022/11/23 20:25:47;;;;;;;5.55;1.10;;;;;;;5.27;89.05;99917.78;10272586;28;20078;-86
2022/11/23 20:30:49;;;;;;;2.13;1.52;;;;;;;5.23;89.81;99923.75;10285161;28;20039;-87
2022/11/23 20:35:51;;;;;;;0.63;0.52;;;;;;;5.21;90.29;99915.03;10293643;28;20419;-86
2022/11/23 20:40:53;;;;;;;1.23;0.77;;;;;;;5.20;90.54;99918.47;10300857;28;20054;-85
2022/11/23 20:45:57;;;;;;;0.60;0.25;;;;;;;5.14;91.06;99920.06;10290329;28;20047;-84
2022/11/23 20:50:58;;;;;;;0.80;0.60;;;;;;;5.21;91.63;99922.81;10297491;28;20518;-84
2022/11/23 20:56:08;;;;;;;1.33;0.57;;;;;;;5.18;91.94;99920.13;10303726;28;20043;-84
2022/11/23 21:01:12;;;;;;;0.83;0.40;;;;;;;5.19;92.22;99929.69;10293381;28;20039;-84
2022/11/23 21:06:14;;;;;;;0.47;0.47;;;;;;;5.14;92.67;99940.81;10292596;28;20055;-84
2022/11/23 21:16:53;;;;;;;0.40;0.40;;;;;;;5.16;93.11;99945.19;10296745;28;20039;-84
2022/11/23 21:21:56;;;;;;;0.20;0.20;;;;;;;5.18;93.43;99946.09;10282443;28;20062;-84
2022/11/23 21:26:57;;;;;;;0.50;0.45;;;;;;;5.25;93.79;99948.88;10284169;28;20053;-84
2022/11/23 21:32:02;;;;;;;0.90;0.80;;;;;;;5.27;94.12;99960.19;10299980;28;20034;-84
2022/11/23 21:37:03;;;;;;;0.45;0.40;;;;;;;5.30;94.32;99957.69;10282347;28;20050;-84
2022/11/23 21:42:06;;;;;;;0.85;0.60;;;;;;;5.29;94.53;99968.88;10300299;28;20050;-84
2022/11/23 21:47:07;;;;;;;3.95;1.63;;;;;;;5.32;94.53;99963.78;10289591;28;20579;-86
2022/11/23 21:52:09;;;;;;;1.77;0.63;;;;;;;5.41;94.79;99965.72;10272661;28;20039;-86
2022/11/23 21:57:10;;;;;;;0.80;0.65;;;;;;;5.46;94.88;99965.84;10277772;28;20067;-85
2022/11/23 22:02:12;;;;;;;1.30;0.95;;;;;;;5.49;95.01;99963.31;10300883;28;20046;-85
2022/11/23 22:07:13;;;;;;;0.25;0.25;;;;;;;5.49;95.22;99964.22;10267777;28;20051;-85
2022/11/23 22:12:15;;;;;;;0.25;0.25;;;;;;;5.54;95.21;99976.41;10286491;28;20043;-85
2022/11/23 22:17:17;;;;;;;0.65;0.57;;;;;;;5.58;95.39;99971.31;10268871;28;20043;-86
2022/11/23 22:22:18;;;;;;;2.63;1.10;;;;;;;5.57;95.37;99984.28;10274891;28;20042;-86
2022/11/23 22:27:20;;;;;;;0.57;0.45;;;;;;;5.53;95.37;99990.25;10281893;28;20047;-85
2022/11/23 22:32:21;;;;;;;0.20;0.20;;;;;;;5.49;95.46;99994.47;10273443;28;20049;-85
2022/11/23 22:37:23;;;;;;;0.10;0.10;;;;;;;5.56;95.48;99987.72;10282561;28;20039;-85
2022/11/23 22:42:24;;;;;;;0.35;0.32;;;;;;;5.56;95.35;99998.13;10312821;28;20047;-85
2022/11/23 22:47:26;;;;;;;0.90;0.73;;;;;;;5.59;95.56;100009.44;10286932;28;20078;-86
2022/11/23 22:52:27;;;;;;;1.27;0.65;;;;;;;5.60;95.47;100013.81;10284089;28;20039;-85
2022/11/23 22:57:29;;;;;;;0.63;0.63;;;;;;;5.61;95.64;100025.06;10289250;28;20583;-85
2022/11/23 23:02:31;;;;;;;0.75;0.52;;;;;;;5.68;95.61;100034.78;10294197;28;20034;-85
2022/11/23 23:07:33;;;;;;;0.28;0.28;;;;;;;5.78;95.63;100034.16;10256290;28;20036;-85
2022/11/23 23:12:35;;;;;;;0.93;0.52;;;;;;;5.86;95.60;100041.28;10277590;28;20049;-85
2022/11/23 23:17:36;;;;;;;0.55;0.47;;;;;;;5.89;95.68;100046.53;10288212;28;20042;-85
2022/11/23 23:22:38;;;;;;;0.55;0.55;;;;;;;5.82;95.56;100040.31;10291859;28;20049;-85
2022/11/23 23:27:39;;;;;;;1.25;0.50;;;;;;;5.71;95.44;100037.44;10279922;28;20406;-85
2022/11/23 23:32:41;;;;;;;0.57;0.57;;;;;;;5.60;95.30;100041.47;10291297;28;20134;-85
2022/11/23 23:37:43;;;;;;;1.58;0.90;;;;;;;5.55;95.07;100037.91;10292731;28;20045;-85
2022/11/23 23:42:44;;;;;;;0.98;0.70;;;;;;;5.53;95.26;100050.84;10317209;28;20054;-84
2022/11/23 23:47:46;;;;;;;2.03;0.63;;;;;;;5.40;95.40;100056.56;10301728;28;20102;-84
2022/11/23 23:52:47;;;;;;;0.50;0.45;;;;;;;5.31;95.12;100052.91;10279757;28;20039;-85
2022/11/23 23:57:49;;;;;;;1.02;0.73;;;;;;;5.22;95.13;100064.72;10300785;28;20062;-84
